UAL2615 KPDX-KSFO
Flight info
| Callsign | UAL2615 |
|---|---|
| Flight time | N/A |
| Altitude | 37000 |
| Route | MINNE5 EASON Q1 ETCHY MLBEC BDEGA4 |
| Aircraft | A320/M-SDE3FGHIRWY/LB1 |
Departure
| Time | 2026-05-05 23:38 |
|---|---|
| Airport | Portland International Airport (KPDX) |
Arrival
| Time | N/A |
|---|---|
| Airport | San Francisco International Airport (KSFO) |
| Time | Latitude | Longitude | Altitude | Speed | Heading |
|---|---|---|---|---|---|
| 2026-05-05 23:08 | 45.58968 | -122.59011 | 31 ft | 0 kts | 208° |
| 2026-05-05 23:18 | 45.58968 | -122.59012 | 31 ft | 0 kts | 210° |
| 2026-05-05 23:18 | 45.58967 | -122.59012 | 31 ft | 0 kts | 210° |
| 2026-05-05 23:27 | 45.58968 | -122.59011 | 31 ft | 1 kts | 210° |
| 2026-05-05 23:28 | 45.58990 | -122.58995 | 31 ft | 4 kts | 208° |
| 2026-05-05 23:28 | 45.59014 | -122.58979 | 30 ft | 4 kts | 191° |
| 2026-05-05 23:28 | 45.59039 | -122.58979 | 30 ft | 4 kts | 151° |
| 2026-05-05 23:28 | 45.59051 | -122.58995 | 29 ft | 1 kts | 119° |
| 2026-05-05 23:29 | 45.59053 | -122.58998 | 29 ft | 0 kts | 119° |
| 2026-05-05 23:31 | 45.59050 | -122.58991 | 30 ft | 3 kts | 119° |
| 2026-05-05 23:32 | 45.59033 | -122.58926 | 31 ft | 10 kts | 99° |
| 2026-05-05 23:32 | 45.59030 | -122.58790 | 32 ft | 17 kts | 93° |
| 2026-05-05 23:32 | 45.58981 | -122.58608 | 31 ft | 21 kts | 119° |
| 2026-05-05 23:32 | 45.58907 | -122.58409 | 30 ft | 24 kts | 118° |
| 2026-05-05 23:33 | 45.58823 | -122.58190 | 32 ft | 26 kts | 120° |
| 2026-05-05 23:33 | 45.58726 | -122.57955 | 31 ft | 29 kts | 118° |
| 2026-05-05 23:33 | 45.58629 | -122.57693 | 32 ft | 31 kts | 118° |
| 2026-05-05 23:33 | 45.58518 | -122.57415 | 29 ft | 33 kts | 119° |
| 2026-05-05 23:34 | 45.58403 | -122.57118 | 31 ft | 35 kts | 118° |
| 2026-05-05 23:34 | 45.58314 | -122.56891 | 30 ft | 17 kts | 120° |
| 2026-05-05 23:34 | 45.58275 | -122.56761 | 32 ft | 9 kts | 94° |
| 2026-05-05 23:34 | 45.58276 | -122.56747 | 31 ft | 0 kts | 81° |
| 2026-05-05 23:37 | 45.58289 | -122.56718 | 31 ft | 12 kts | 45° |
| 2026-05-05 23:37 | 45.58397 | -122.56776 | 31 ft | 27 kts | 301° |
| 2026-05-05 23:37 | 45.58563 | -122.57200 | 30 ft | 81 kts | 298° |
| 2026-05-05 23:37 | 45.58936 | -122.58159 | 32 ft | 137 kts | 299° |
| 2026-05-05 23:38 | 45.59473 | -122.59496 | 243 ft | 162 kts | 301° |
| 2026-05-05 23:38 | 45.60020 | -122.60852 | 1098 ft | 152 kts | 296° |
| 2026-05-05 23:38 | 45.60425 | -122.62162 | 1898 ft | 142 kts | 294° |
| 2026-05-05 23:38 | 45.60847 | -122.63445 | 2347 ft | 149 kts | 297° |
| 2026-05-05 23:39 | 45.61338 | -122.64867 | 2592 ft | 172 kts | 291° |
| 2026-05-05 23:39 | 45.61650 | -122.66633 | 2865 ft | 195 kts | 286° |
| 2026-05-05 23:39 | 45.62253 | -122.68508 | 3172 ft | 220 kts | 301° |
| 2026-05-05 23:39 | 45.63066 | -122.70504 | 3599 ft | 244 kts | 301° |
| 2026-05-05 23:40 | 45.63953 | -122.72679 | 4261 ft | 259 kts | 301° |
| 2026-05-05 23:40 | 45.64851 | -122.74956 | 5098 ft | 268 kts | 295° |
| 2026-05-05 23:40 | 45.65260 | -122.77586 | 5938 ft | 277 kts | 269° |
| 2026-05-05 23:40 | 45.64803 | -122.80259 | 6805 ft | 281 kts | 242° |
| 2026-05-05 23:41 | 45.63544 | -122.82354 | 7622 ft | 285 kts | 215° |
| 2026-05-05 23:41 | 45.61717 | -122.83468 | 8459 ft | 290 kts | 193° |
| 2026-05-05 23:41 | 45.59740 | -122.84148 | 9323 ft | 293 kts | 193° |
| 2026-05-05 23:41 | 45.57735 | -122.84822 | 10121 ft | 299 kts | 193° |
| 2026-05-05 23:42 | 45.55621 | -122.85532 | 10416 ft | 323 kts | 193° |
| 2026-05-05 23:42 | 45.53375 | -122.86286 | 10806 ft | 338 kts | 193° |
| 2026-05-05 23:42 | 45.51058 | -122.87066 | 11454 ft | 345 kts | 193° |
| 2026-05-05 23:42 | 45.48706 | -122.87862 | 12146 ft | 350 kts | 193° |
| 2026-05-05 23:43 | 45.46312 | -122.88675 | 12839 ft | 355 kts | 193° |
| 2026-05-05 23:43 | 45.43922 | -122.89493 | 13528 ft | 361 kts | 194° |
| 2026-05-05 23:43 | 45.41463 | -122.90337 | 14165 ft | 366 kts | 193° |
| 2026-05-05 23:43 | 45.38965 | -122.91192 | 14772 ft | 371 kts | 193° |
| 2026-05-05 23:44 | 45.36439 | -122.92054 | 15394 ft | 375 kts | 193° |
| 2026-05-05 23:44 | 45.33888 | -122.92919 | 16011 ft | 379 kts | 193° |
| 2026-05-05 23:44 | 45.31312 | -122.93790 | 16606 ft | 383 kts | 193° |
| 2026-05-05 23:44 | 45.28703 | -122.94675 | 17228 ft | 387 kts | 193° |
| 2026-05-05 23:45 | 45.26072 | -122.95567 | 17836 ft | 391 kts | 193° |
| 2026-05-05 23:45 | 45.23415 | -122.96466 | 18447 ft | 395 kts | 192° |
| 2026-05-05 23:45 | 45.20768 | -122.97588 | 18983 ft | 399 kts | 199° |
| 2026-05-05 23:45 | 45.18145 | -122.98915 | 19586 ft | 402 kts | 199° |
| 2026-05-05 23:46 | 45.15497 | -123.00257 | 20141 ft | 406 kts | 199° |
| 2026-05-05 23:46 | 45.12824 | -123.01613 | 20703 ft | 409 kts | 199° |
| 2026-05-05 23:46 | 45.10127 | -123.02978 | 21256 ft | 413 kts | 199° |
| 2026-05-05 23:46 | 45.07410 | -123.04346 | 21802 ft | 416 kts | 199° |
| 2026-05-05 23:47 | 45.04666 | -123.05721 | 22340 ft | 420 kts | 200° |
| 2026-05-05 23:47 | 45.01900 | -123.07104 | 22883 ft | 423 kts | 200° |
| 2026-05-05 23:47 | 44.99112 | -123.08497 | 23414 ft | 427 kts | 200° |
| 2026-05-05 23:47 | 44.96331 | -123.09888 | 23872 ft | 430 kts | 200° |
| 2026-05-05 23:48 | 44.93500 | -123.11303 | 24355 ft | 432 kts | 200° |
| 2026-05-05 23:48 | 44.90659 | -123.12722 | 24827 ft | 434 kts | 200° |
| 2026-05-05 23:48 | 44.87794 | -123.14150 | 25237 ft | 438 kts | 200° |
| 2026-05-05 23:48 | 44.84917 | -123.15584 | 25661 ft | 440 kts | 200° |
| 2026-05-05 23:49 | 44.82015 | -123.17029 | 26084 ft | 443 kts | 200° |
| 2026-05-05 23:49 | 44.79099 | -123.18480 | 26503 ft | 446 kts | 200° |
| 2026-05-05 23:49 | 44.76171 | -123.19937 | 26908 ft | 448 kts | 200° |
| 2026-05-05 23:49 | 44.73217 | -123.21407 | 27308 ft | 451 kts | 200° |
| 2026-05-05 23:50 | 44.70250 | -123.22884 | 27711 ft | 453 kts | 200° |
| 2026-05-05 23:50 | 44.67284 | -123.24356 | 28129 ft | 455 kts | 200° |
| 2026-05-05 23:50 | 44.64280 | -123.25844 | 28525 ft | 458 kts | 200° |
| 2026-05-05 23:50 | 44.61265 | -123.27333 | 28894 ft | 461 kts | 200° |
| 2026-05-05 23:51 | 44.58229 | -123.28828 | 29271 ft | 463 kts | 200° |
| 2026-05-05 23:51 | 44.55180 | -123.30325 | 29646 ft | 466 kts | 200° |
| 2026-05-05 23:51 | 44.52082 | -123.31734 | 30021 ft | 469 kts | 195° |
| 2026-05-05 23:51 | 44.48865 | -123.32575 | 30341 ft | 472 kts | 186° |
| 2026-05-05 23:52 | 44.45567 | -123.32740 | 30641 ft | 475 kts | 178° |
| 2026-05-05 23:52 | 44.42256 | -123.32590 | 30937 ft | 477 kts | 178° |
| 2026-05-05 23:52 | 44.38926 | -123.32443 | 31240 ft | 480 kts | 178° |
| 2026-05-05 23:52 | 44.35620 | -123.32304 | 31545 ft | 481 kts | 178° |
| 2026-05-05 23:53 | 44.32266 | -123.32167 | 31946 ft | 481 kts | 178° |
| 2026-05-05 23:53 | 44.28916 | -123.32036 | 32352 ft | 481 kts | 178° |
| 2026-05-05 23:53 | 44.25564 | -123.31907 | 32753 ft | 481 kts | 178° |
| 2026-05-05 23:53 | 44.22216 | -123.31777 | 33160 ft | 481 kts | 178° |
| 2026-05-05 23:54 | 44.18865 | -123.31644 | 33568 ft | 481 kts | 178° |
| 2026-05-05 23:54 | 44.15519 | -123.31510 | 33994 ft | 482 kts | 178° |
| 2026-05-05 23:54 | 44.12173 | -123.31374 | 34363 ft | 481 kts | 178° |
| 2026-05-05 23:54 | 44.08820 | -123.31237 | 34717 ft | 481 kts | 178° |
| 2026-05-05 23:55 | 44.05482 | -123.31103 | 35103 ft | 479 kts | 177° |
| 2026-05-05 23:55 | 44.02153 | -123.30970 | 35465 ft | 478 kts | 177° |
| 2026-05-05 23:55 | 43.98825 | -123.30838 | 35820 ft | 477 kts | 177° |
| 2026-05-05 23:55 | 43.95509 | -123.30709 | 36162 ft | 477 kts | 177° |
| 2026-05-05 23:56 | 43.92235 | -123.30582 | 36487 ft | 476 kts | 177° |
| 2026-05-05 23:56 | 43.88918 | -123.30452 | 36794 ft | 476 kts | 177° |
| 2026-05-05 23:56 | 43.85624 | -123.30323 | 37014 ft | 476 kts | 177° |
| 2026-05-05 23:56 | 43.82295 | -123.30191 | 37061 ft | 476 kts | 177° |
| 2026-05-05 23:57 | 43.75677 | -123.29924 | 37035 ft | 475 kts | 177° |
| 2026-05-05 23:57 | 43.69067 | -123.29665 | 37047 ft | 474 kts | 177° |
| 2026-05-05 23:58 | 43.62469 | -123.29409 | 37049 ft | 474 kts | 177° |
| 2026-05-05 23:58 | 43.55886 | -123.29152 | 37047 ft | 474 kts | 177° |
| 2026-05-05 23:59 | 43.49275 | -123.28903 | 37053 ft | 474 kts | 177° |
| 2026-05-05 23:59 | 43.42718 | -123.28649 | 37046 ft | 475 kts | 177° |
| 2026-05-06 00:00 | 43.36108 | -123.28385 | 37037 ft | 475 kts | 177° |
| 2026-05-06 00:00 | 43.29496 | -123.28126 | 37045 ft | 475 kts | 177° |
| 2026-05-06 00:01 | 43.22888 | -123.27874 | 37046 ft | 475 kts | 177° |
| 2026-05-06 00:01 | 43.16665 | -123.27632 | 37053 ft | 475 kts | 176° |
| 2026-05-06 00:02 | 43.10074 | -123.27110 | 37108 ft | 473 kts | 172° |
| 2026-05-06 00:02 | 43.03593 | -123.25854 | 37077 ft | 473 kts | 166° |
| 2026-05-06 00:03 | 42.97240 | -123.23611 | 37078 ft | 470 kts | 158° |
| 2026-05-06 00:03 | 42.91285 | -123.20124 | 37010 ft | 467 kts | 148° |
| 2026-05-06 00:04 | 42.85867 | -123.15295 | 36927 ft | 462 kts | 137° |
| 2026-05-06 00:04 | 42.81178 | -123.09397 | 37021 ft | 454 kts | 128° |
| 2026-05-06 00:05 | 42.75610 | -122.99182 | 36948 ft | 448 kts | 114° |
| 2026-05-06 00:06 | 42.73107 | -122.91498 | 36880 ft | 440 kts | 102° |
| 2026-05-06 00:06 | 42.71887 | -122.83445 | 36848 ft | 431 kts | 90° |
| 2026-05-06 00:07 | 42.72035 | -122.75377 | 36763 ft | 424 kts | 77° |
| 2026-05-06 00:07 | 42.73532 | -122.67754 | 36708 ft | 415 kts | 63° |
| 2026-05-06 00:08 | 42.76389 | -122.61027 | 36608 ft | 409 kts | 49° |
| 2026-05-06 00:08 | 42.79710 | -122.56470 | 36519 ft | 406 kts | 36° |
| 2026-05-06 00:09 | 42.84533 | -122.52559 | 36540 ft | 402 kts | 22° |
| 2026-05-06 00:09 | 42.89925 | -122.50638 | 36521 ft | 401 kts | 7° |
| 2026-05-06 00:10 | 42.95482 | -122.50863 | 36387 ft | 406 kts | 351° |
| 2026-05-06 00:10 | 42.98234 | -122.51828 | 36273 ft | 411 kts | 344° |
| 2026-05-06 00:10 | 43.00920 | -122.53222 | 36265 ft | 412 kts | 339° |
| 2026-05-06 00:10 | 43.03509 | -122.54916 | 36371 ft | 410 kts | 336° |
| 2026-05-06 00:11 | 43.05986 | -122.56727 | 36547 ft | 407 kts | 334° |